createdAt,value
2023-05-05T00:00:13.488Z,30.50
2023-05-05T00:02:41.480Z,30.60
2023-05-05T00:05:09.237Z,30.60
2023-05-05T00:07:36.845Z,30.70
2023-05-05T00:10:04.877Z,30.70
2023-05-05T00:12:32.741Z,30.80
2023-05-05T00:15:00.284Z,30.80
2023-05-05T00:17:27.799Z,30.80
2023-05-05T00:19:55.357Z,30.90
2023-05-05T00:22:22.908Z,30.90
2023-05-05T00:24:50.476Z,30.90
2023-05-05T00:27:18.826Z,30.90
2023-05-05T00:29:46.824Z,31.00
2023-05-05T00:32:14.740Z,31.00
2023-05-05T00:34:43.150Z,31.10
2023-05-05T00:37:11.959Z,31.20
2023-05-05T00:39:39.639Z,31.20
2023-05-05T00:42:07.511Z,31.30
2023-05-05T00:44:40.515Z,31.30
2023-05-05T00:47:11.991Z,31.40
2023-05-05T00:49:39.990Z,31.40
2023-05-05T00:52:07.855Z,31.50
2023-05-05T00:54:35.782Z,31.50
2023-05-05T00:57:03.524Z,31.60
2023-05-05T00:59:33.806Z,31.70
2023-05-05T01:02:01.680Z,31.70
2023-05-05T01:04:29.362Z,31.80
2023-05-05T01:07:04.460Z,31.90
2023-05-05T01:09:43.028Z,32.00
2023-05-05T01:12:23.732Z,32.00
2023-05-05T01:15:18.924Z,32.20
2023-05-05T01:17:54.752Z,32.10
2023-05-05T01:21:36.832Z,32.20
2023-05-05T01:24:27.856Z,32.30
2023-05-05T01:30:02.431Z,32.50
2023-05-05T01:32:34.451Z,32.60
2023-05-05T01:35:11.951Z,32.70
2023-05-05T01:38:00.642Z,32.70
2023-05-05T01:40:30.570Z,32.80
2023-05-05T01:42:59.812Z,32.90
2023-05-05T01:48:03.985Z,33.10
2023-05-05T01:50:32.676Z,33.10
2023-05-05T01:53:00.581Z,33.20
2023-05-05T01:55:28.915Z,33.20
2023-05-05T01:58:00.374Z,33.40
2023-05-05T02:00:28.414Z,33.40
2023-05-05T02:03:00.228Z,33.60
2023-05-05T02:05:28.626Z,33.60
2023-05-05T02:07:59.468Z,33.50
2023-05-05T02:10:43.290Z,34.00
2023-05-05T02:13:19.342Z,33.80
2023-05-05T02:18:31.197Z,33.90
2023-05-05T02:20:58.873Z,33.90
2023-05-05T02:23:26.920Z,33.90
2023-05-05T02:25:57.200Z,34.00
2023-05-05T02:28:47.708Z,34.10
2023-05-05T02:31:16.961Z,34.40
2023-05-05T02:33:47.011Z,34.20
2023-05-05T02:36:21.797Z,34.30
2023-05-05T02:39:01.303Z,34.40
2023-05-05T02:41:29.664Z,34.40
2023-05-05T02:43:58.443Z,34.40
2023-05-05T02:49:09.651Z,34.50
2023-05-05T02:51:37.472Z,34.50
2023-05-05T02:54:07.550Z,34.60
2023-05-05T02:56:44.807Z,34.60
2023-05-05T02:59:18.211Z,34.80
2023-05-05T03:01:49.244Z,34.70
2023-05-05T03:04:19.268Z,35.00
2023-05-05T03:06:52.044Z,35.00
2023-05-05T03:09:34.640Z,35.10
2023-05-05T03:12:04.445Z,35.20
2023-05-05T03:14:38.675Z,35.30
2023-05-05T03:17:07.237Z,35.30
2023-05-05T03:19:39.875Z,35.30
2023-05-05T03:22:08.450Z,35.90
2023-05-05T03:24:40.312Z,35.40
2023-05-05T03:27:08.081Z,35.40
2023-05-05T03:29:35.786Z,35.50
2023-05-05T03:32:04.896Z,35.60
2023-05-05T03:39:51.063Z,35.70
2023-05-05T03:42:19.401Z,35.70
2023-05-05T03:44:47.462Z,35.70
2023-05-05T03:47:15.376Z,35.80
2023-05-05T03:49:43.230Z,35.80
2023-05-05T03:52:11.739Z,35.80
2023-05-05T03:54:48.000Z,35.90
2023-05-05T03:57:15.783Z,36.00
2023-05-05T03:59:43.643Z,36.10
2023-05-05T04:02:18.835Z,36.20
2023-05-05T04:04:46.586Z,36.10
2023-05-05T04:07:17.172Z,36.30
2023-05-05T04:09:45.221Z,36.40
2023-05-05T04:12:14.281Z,36.50
2023-05-05T04:14:45.121Z,36.50
2023-05-05T04:17:27.206Z,36.50
2023-05-05T04:19:55.052Z,36.60
2023-05-05T04:22:34.320Z,38.20
2023-05-05T04:25:02.357Z,37.10
2023-05-05T04:27:34.026Z,37.20
2023-05-05T04:30:08.529Z,36.80
2023-05-05T04:32:39.429Z,36.10
2023-05-05T04:35:07.298Z,36.90
2023-05-05T04:40:34.258Z,37.00
2023-05-05T04:43:02.320Z,37.00
2023-05-05T04:45:30.349Z,37.00
2023-05-05T04:48:04.844Z,37.10
2023-05-05T04:50:34.006Z,37.10
2023-05-05T04:53:05.165Z,37.20
2023-05-05T04:55:33.340Z,37.20
2023-05-05T04:58:01.064Z,37.20
2023-05-05T05:00:28.699Z,37.30
2023-05-05T05:08:38.432Z,37.40
2023-05-05T05:11:19.676Z,37.70
2023-05-05T05:13:57.958Z,37.60
2023-05-05T05:16:29.880Z,37.10
2023-05-05T05:19:01.658Z,38.10
2023-05-05T05:21:45.370Z,37.70
2023-05-05T05:26:55.834Z,37.00
2023-05-05T05:29:27.618Z,38.30
2023-05-05T05:32:07.644Z,38.50
2023-05-05T05:34:35.695Z,38.50
2023-05-05T05:37:09.964Z,37.60
2023-05-05T05:39:48.311Z,38.40
2023-05-05T05:42:24.130Z,37.80
2023-05-05T05:44:51.984Z,38.10
2023-05-05T05:47:23.476Z,37.70
2023-05-05T05:49:54.150Z,38.40
2023-05-05T05:52:26.854Z,37.50
2023-05-05T05:54:59.992Z,37.80
2023-05-05T05:57:28.101Z,37.70
2023-05-05T05:59:55.927Z,37.70
2023-05-05T06:02:23.804Z,37.80
2023-05-05T06:07:24.823Z,38.10
2023-05-05T06:10:18.664Z,38.10
2023-05-05T06:12:52.757Z,38.20
2023-05-05T06:15:20.591Z,38.20
2023-05-05T06:17:49.291Z,38.30
2023-05-05T06:20:21.965Z,38.30
2023-05-05T06:22:52.974Z,38.40
2023-05-05T06:25:20.805Z,38.50
2023-05-05T06:27:48.530Z,38.50
2023-05-05T06:30:18.783Z,38.50
2023-05-05T06:32:46.526Z,38.70
2023-05-05T06:35:14.159Z,38.60
2023-05-05T06:37:41.775Z,38.60
2023-05-05T06:40:10.754Z,38.60
2023-05-05T06:42:39.658Z,38.60
2023-05-05T06:45:07.616Z,38.60
2023-05-05T06:47:36.279Z,38.60
2023-05-05T06:50:05.831Z,38.60
2023-05-05T06:52:34.094Z,38.60
2023-05-05T06:55:05.518Z,38.60
2023-05-05T06:57:35.179Z,38.70
2023-05-05T07:00:06.001Z,38.80
2023-05-05T07:02:35.100Z,38.80
2023-05-05T07:05:03.369Z,38.90
2023-05-05T07:07:33.313Z,38.90
2023-05-05T07:10:01.253Z,39.00
2023-05-05T07:12:32.268Z,38.90
2023-05-05T07:15:00.739Z,38.90
2023-05-05T07:17:34.673Z,38.90
2023-05-05T07:20:04.065Z,38.80
2023-05-05T07:22:31.663Z,38.80
2023-05-05T07:25:00.913Z,38.90
2023-05-05T07:27:29.568Z,38.90
2023-05-05T07:29:58.748Z,39.00
2023-05-05T07:32:27.985Z,39.00
2023-05-05T07:34:56.481Z,39.00
2023-05-05T07:37:24.425Z,39.00
2023-05-05T07:39:52.275Z,39.10
2023-05-05T07:42:22.481Z,39.10
2023-05-05T07:44:51.033Z,39.00
2023-05-05T07:47:20.957Z,38.80
2023-05-05T07:49:49.314Z,39.00
2023-05-05T07:52:16.961Z,38.80
2023-05-05T07:54:46.070Z,38.90
2023-05-05T07:57:13.741Z,38.90
2023-05-05T07:59:46.964Z,38.90
2023-05-05T08:02:15.449Z,38.80
2023-05-05T08:04:44.028Z,38.80
2023-05-05T08:07:12.745Z,38.80
2023-05-05T08:09:40.732Z,38.80
2023-05-05T08:12:11.544Z,38.90
2023-05-05T08:14:41.033Z,38.70
2023-05-05T08:17:09.218Z,39.00
2023-05-05T08:19:38.797Z,38.90
2023-05-05T08:22:06.969Z,39.00
2023-05-05T08:24:34.760Z,39.00
2023-05-05T08:27:02.867Z,39.00
2023-05-05T08:29:30.574Z,39.10
2023-05-05T08:31:58.935Z,39.10
2023-05-05T08:34:27.798Z,39.10
2023-05-05T08:36:55.894Z,39.10
2023-05-05T08:39:26.434Z,39.10
2023-05-05T08:41:54.946Z,39.10
2023-05-05T08:44:22.708Z,39.10
2023-05-05T08:46:50.608Z,39.00
2023-05-05T08:49:26.470Z,39.00
2023-05-05T08:51:54.989Z,39.00
2023-05-05T08:54:26.222Z,39.00
2023-05-05T08:56:54.297Z,39.00
2023-05-05T08:59:25.690Z,39.00
2023-05-05T09:01:55.174Z,38.90
2023-05-05T09:04:23.494Z,38.80
2023-05-05T09:06:51.700Z,38.70
2023-05-05T09:09:20.457Z,38.70
2023-05-05T09:11:48.634Z,38.70
2023-05-05T09:14:16.267Z,38.60
2023-05-05T09:16:44.486Z,38.50
2023-05-05T09:19:20.272Z,38.50
2023-05-05T09:21:51.007Z,38.50
2023-05-05T09:24:18.968Z,38.50
2023-05-05T09:26:47.657Z,38.50
2023-05-05T09:29:22.956Z,38.60
2023-05-05T09:32:09.212Z,38.60
2023-05-05T09:34:37.068Z,38.60
2023-05-05T09:37:04.761Z,38.50
2023-05-05T09:39:32.412Z,38.50
2023-05-05T09:42:03.037Z,38.50
2023-05-05T09:44:36.561Z,38.40
2023-05-05T09:47:09.397Z,38.30
2023-05-05T09:49:39.933Z,38.20
2023-05-05T09:52:18.081Z,38.10
2023-05-05T09:54:46.167Z,38.00
2023-05-05T09:57:51.530Z,38.00
2023-05-05T10:00:20.015Z,37.90
2023-05-05T10:02:47.964Z,37.90
2023-05-05T10:05:17.029Z,37.90
2023-05-05T10:07:45.794Z,37.80
2023-05-05T10:10:16.047Z,37.80
2023-05-05T10:12:44.671Z,37.80
2023-05-05T10:15:12.601Z,37.80
2023-05-05T10:18:02.331Z,37.80
2023-05-05T10:20:36.006Z,37.70
2023-05-05T10:23:10.278Z,37.60
2023-05-05T10:25:44.707Z,37.60
2023-05-05T10:28:16.210Z,37.50
2023-05-05T10:30:44.680Z,37.50
2023-05-05T10:33:32.239Z,37.50
2023-05-05T10:36:05.589Z,37.40
2023-05-05T10:38:34.057Z,37.40
2023-05-05T10:41:02.386Z,37.30
2023-05-05T10:43:33.164Z,37.30
2023-05-05T10:46:01.144Z,37.20
2023-05-05T10:48:49.642Z,37.20
2023-05-05T10:51:40.339Z,37.10
2023-05-05T10:54:28.625Z,37.10
2023-05-05T10:56:57.889Z,37.00
2023-05-05T10:59:39.038Z,37.00
2023-05-05T11:02:23.846Z,36.90
2023-05-05T11:05:05.320Z,36.90
2023-05-05T11:07:35.355Z,36.80
2023-05-05T11:10:04.493Z,36.90
2023-05-05T11:12:32.642Z,36.80
2023-05-05T11:15:20.867Z,36.80
2023-05-05T11:17:49.241Z,36.70
2023-05-05T11:20:17.936Z,36.70
2023-05-05T11:23:04.808Z,36.70
2023-05-05T11:25:37.189Z,36.60
2023-05-05T11:28:08.846Z,36.60
2023-05-05T11:30:36.948Z,36.50
2023-05-05T11:33:23.152Z,36.60
2023-05-05T11:36:03.415Z,36.50
2023-05-05T11:38:52.153Z,36.40
2023-05-05T11:41:19.687Z,36.30
2023-05-05T11:43:47.347Z,36.30
2023-05-05T11:46:16.771Z,36.20
2023-05-05T11:48:48.271Z,36.20
2023-05-05T11:51:17.135Z,36.20
2023-05-05T11:53:47.046Z,36.20
2023-05-05T11:56:22.543Z,36.00
2023-05-05T11:58:51.245Z,36.00
2023-05-05T12:01:18.827Z,36.00
2023-05-05T12:03:47.470Z,35.90
2023-05-05T12:06:15.277Z,35.90
2023-05-05T12:08:42.859Z,35.90
2023-05-05T12:11:12.058Z,35.80
2023-05-05T12:13:40.568Z,35.80
2023-05-05T12:16:13.080Z,35.70
2023-05-05T12:18:42.048Z,35.70
2023-05-05T12:21:16.714Z,35.70
2023-05-05T12:23:45.133Z,35.60
2023-05-05T12:26:26.702Z,35.60
2023-05-05T12:28:55.486Z,35.50
2023-05-05T12:31:24.018Z,35.50
2023-05-05T12:33:52.960Z,35.50
2023-05-05T12:36:20.717Z,35.50
2023-05-05T12:38:48.275Z,35.40
2023-05-05T12:41:19.343Z,35.40
2023-05-05T12:43:48.172Z,35.40
2023-05-05T12:46:15.884Z,35.30
2023-05-05T12:48:48.368Z,35.30
2023-05-05T12:51:23.786Z,35.30
2023-05-05T12:54:05.426Z,35.30
2023-05-05T12:56:43.616Z,35.30
2023-05-05T12:59:12.089Z,35.20
2023-05-05T13:02:02.981Z,35.20
2023-05-05T13:04:31.505Z,35.20
2023-05-05T13:07:09.283Z,35.20
2023-05-05T13:09:37.708Z,35.10
2023-05-05T13:12:05.529Z,35.10
2023-05-05T13:14:33.945Z,35.20
2023-05-05T13:17:01.599Z,35.10
2023-05-05T13:19:29.322Z,35.10
2023-05-05T13:21:57.621Z,35.10
2023-05-05T13:24:37.936Z,35.10
2023-05-05T13:27:13.486Z,35.10
2023-05-05T13:29:41.883Z,35.20
2023-05-05T13:32:10.432Z,35.10
2023-05-05T13:34:39.584Z,35.10
2023-05-05T13:37:07.545Z,35.10
2023-05-05T13:39:35.135Z,35.10
2023-05-05T13:42:02.676Z,35.00
2023-05-05T13:44:30.221Z,35.00
2023-05-05T13:46:57.904Z,34.90
2023-05-05T13:49:26.691Z,34.90
2023-05-05T13:51:55.416Z,34.90
2023-05-05T13:54:22.919Z,34.90
2023-05-05T13:56:50.445Z,34.90
2023-05-05T13:59:18.378Z,34.80
2023-05-05T14:01:46.663Z,34.80
2023-05-05T14:04:14.298Z,34.80
2023-05-05T14:06:42.088Z,34.70
2023-05-05T14:09:10.366Z,34.70
2023-05-05T14:11:37.898Z,34.70
2023-05-05T14:14:05.521Z,34.70
2023-05-05T14:16:33.124Z,34.70
2023-05-05T14:19:01.472Z,34.60
2023-05-05T14:21:29.078Z,34.70
2023-05-05T14:23:56.595Z,34.60
2023-05-05T14:26:24.338Z,34.60
2023-05-05T14:28:52.748Z,34.60
2023-05-05T14:31:20.341Z,34.50
2023-05-05T14:33:48.008Z,34.50
2023-05-05T14:36:15.671Z,34.40
2023-05-05T14:38:44.110Z,34.40
2023-05-05T14:41:12.639Z,34.40
2023-05-05T14:43:40.152Z,34.30
2023-05-05T14:46:07.807Z,34.30
2023-05-05T14:48:35.709Z,34.30
2023-05-05T14:51:03.259Z,34.20
2023-05-05T14:53:31.822Z,34.20
2023-05-05T14:56:00.117Z,34.20
2023-05-05T14:58:27.705Z,34.20
2023-05-05T15:00:55.673Z,34.10
2023-05-05T15:03:24.201Z,34.10
2023-05-05T15:05:52.868Z,34.00
2023-05-05T15:08:20.497Z,34.00
2023-05-05T15:10:48.608Z,33.90
2023-05-05T15:13:16.522Z,33.90
2023-05-05T15:15:45.250Z,33.90
2023-05-05T15:18:13.661Z,33.90
2023-05-05T15:20:41.253Z,33.80
2023-05-05T15:23:08.823Z,33.90
2023-05-05T15:25:36.848Z,33.80
2023-05-05T15:28:05.199Z,33.80
2023-05-05T15:30:33.632Z,33.80
2023-05-05T15:33:01.382Z,33.80
2023-05-05T15:35:28.999Z,33.80
2023-05-05T15:37:56.573Z,33.70
2023-05-05T15:40:24.147Z,33.70
2023-05-05T15:42:51.677Z,33.80
2023-05-05T15:45:19.340Z,33.70
2023-05-05T15:47:47.196Z,33.70
2023-05-05T15:50:14.810Z,33.70
2023-05-05T15:52:42.739Z,33.70
2023-05-05T15:55:10.745Z,33.70
2023-05-05T15:57:40.084Z,33.70
2023-05-05T16:00:09.556Z,33.60
2023-05-05T16:02:37.129Z,33.60
2023-05-05T16:05:05.272Z,33.60
2023-05-05T16:07:33.658Z,33.60
2023-05-05T16:10:02.019Z,33.60
2023-05-05T16:12:29.592Z,33.60
2023-05-05T16:14:57.154Z,33.60
2023-05-05T16:17:24.707Z,33.50
2023-05-05T16:20:06.300Z,33.50
2023-05-05T16:22:34.125Z,33.50
2023-05-05T16:25:01.616Z,33.40
2023-05-05T16:27:29.193Z,33.50
2023-05-05T16:29:58.512Z,33.50
2023-05-05T16:32:27.355Z,33.50
2023-05-05T16:34:56.116Z,33.50
2023-05-05T16:37:24.591Z,33.40
2023-05-05T16:39:52.177Z,33.40
2023-05-05T16:42:21.229Z,33.40
2023-05-05T16:44:48.712Z,33.40
2023-05-05T16:47:16.226Z,33.40
2023-05-05T16:49:44.993Z,33.40
2023-05-05T16:52:13.360Z,33.40
2023-05-05T16:54:42.625Z,33.40
2023-05-05T16:57:10.301Z,33.40
2023-05-05T16:59:37.835Z,33.30
2023-05-05T17:02:05.495Z,33.30
2023-05-05T17:04:33.178Z,33.30
2023-05-05T17:07:00.893Z,33.30
2023-05-05T17:09:28.408Z,33.30
2023-05-05T17:11:56.447Z,33.30
2023-05-05T17:14:24.737Z,33.30
2023-05-05T17:16:53.249Z,33.30
2023-05-05T17:19:20.880Z,33.20
2023-05-05T17:21:48.409Z,33.20
2023-05-05T17:24:16.047Z,33.10
2023-05-05T17:26:45.666Z,33.20
2023-05-05T17:29:14.481Z,33.10
2023-05-05T17:31:43.072Z,33.10
2023-05-05T17:34:10.734Z,33.10
2023-05-05T17:36:39.052Z,33.10
2023-05-05T17:39:06.694Z,33.10
2023-05-05T17:41:34.486Z,33.10
2023-05-05T17:44:02.152Z,33.10
2023-05-05T17:46:31.435Z,33.10
2023-05-05T17:48:59.893Z,33.00
2023-05-05T17:51:27.626Z,33.00
2023-05-05T17:53:55.164Z,33.00
2023-05-05T17:56:23.528Z,33.00
2023-05-05T17:58:51.076Z,33.00
2023-05-05T18:01:22.501Z,33.00
2023-05-05T18:03:50.197Z,32.90
2023-05-05T18:06:18.818Z,32.90
2023-05-05T18:08:47.062Z,32.90
2023-05-05T18:11:16.187Z,32.90
2023-05-05T18:13:43.958Z,32.90
2023-05-05T18:16:11.447Z,32.80
2023-05-05T18:18:40.536Z,32.80
2023-05-05T18:21:12.556Z,32.80
2023-05-05T18:23:41.310Z,32.80
2023-05-05T18:26:09.123Z,32.80
2023-05-05T18:28:41.446Z,32.70
2023-05-05T18:31:09.034Z,32.80
2023-05-05T18:33:36.717Z,32.70
2023-05-05T18:36:04.417Z,32.70
2023-05-05T18:38:32.948Z,32.70
2023-05-05T18:41:00.513Z,32.70
2023-05-05T18:43:28.278Z,32.70
2023-05-05T18:45:55.903Z,32.60
2023-05-05T18:48:24.397Z,32.70
2023-05-05T18:50:52.290Z,32.60
2023-05-05T18:53:21.317Z,32.60
2023-05-05T18:55:49.557Z,32.60
2023-05-05T18:58:17.261Z,32.50
2023-05-05T19:00:44.794Z,32.50
2023-05-05T19:03:13.113Z,32.50
2023-05-05T19:05:40.944Z,32.50
2023-05-05T19:08:08.559Z,32.50
2023-05-05T19:16:11.472Z,32.50
2023-05-05T19:18:39.946Z,32.40
2023-05-05T19:21:07.535Z,32.40
2023-05-05T19:23:36.320Z,32.40
2023-05-05T19:26:04.091Z,32.40
2023-05-05T19:28:31.745Z,32.30
2023-05-05T19:31:00.097Z,32.30
2023-05-05T19:33:28.571Z,32.30
2023-05-05T19:35:56.752Z,32.30
2023-05-05T19:38:24.387Z,32.30
2023-05-05T19:40:52.046Z,32.30
2023-05-05T19:43:19.628Z,32.20
2023-05-05T19:45:47.190Z,32.20
2023-05-05T19:48:14.745Z,32.20
2023-05-05T19:50:43.206Z,32.20
2023-05-05T19:53:10.857Z,32.20
2023-05-05T19:55:38.530Z,32.20
2023-05-05T19:58:06.148Z,32.20
2023-05-05T20:00:33.711Z,32.20
2023-05-05T20:03:02.337Z,32.20
2023-05-05T20:05:29.941Z,32.10
2023-05-05T20:07:57.615Z,32.10
2023-05-05T20:10:26.922Z,32.10
2023-05-05T20:12:54.513Z,32.10
2023-05-05T20:15:22.513Z,32.10
2023-05-05T20:17:50.222Z,32.10
2023-05-05T20:20:19.129Z,32.00
2023-05-05T20:22:48.005Z,32.00
2023-05-05T20:25:16.496Z,32.00
2023-05-05T20:27:45.353Z,32.00
2023-05-05T20:30:13.492Z,32.00
2023-05-05T20:32:41.612Z,31.90
2023-05-05T20:35:13.353Z,32.00
2023-05-05T20:37:41.127Z,31.90
2023-05-05T20:40:11.892Z,31.90
2023-05-05T20:42:39.662Z,31.90
2023-05-05T20:45:07.579Z,31.90
2023-05-05T20:47:36.687Z,31.90
2023-05-05T20:50:04.550Z,31.80
2023-05-05T20:52:34.074Z,31.90
2023-05-05T20:55:02.561Z,31.80
2023-05-05T20:57:30.164Z,31.80
2023-05-05T20:59:57.756Z,31.80
2023-05-05T21:02:25.406Z,31.70
2023-05-05T21:04:53.048Z,31.80
2023-05-05T21:07:20.915Z,31.70
2023-05-05T21:09:48.521Z,31.70
2023-05-05T21:12:16.045Z,31.70
2023-05-05T21:14:45.001Z,31.70
2023-05-05T21:17:12.552Z,31.70
2023-05-05T21:19:40.116Z,31.70
2023-05-05T21:22:07.753Z,31.60
2023-05-05T21:24:35.663Z,31.60
2023-05-05T21:27:03.265Z,31.60
2023-05-05T21:29:37.587Z,31.60
2023-05-05T21:32:06.021Z,31.60
2023-05-05T21:34:33.640Z,31.60
2023-05-05T21:37:01.252Z,31.50
2023-05-05T21:39:31.605Z,31.60
2023-05-05T21:41:59.430Z,31.60
2023-05-05T21:44:28.436Z,31.50
2023-05-05T21:46:56.103Z,31.50
2023-05-05T21:49:23.962Z,31.50
2023-05-05T21:51:51.491Z,31.50
2023-05-05T21:54:19.061Z,31.50
2023-05-05T21:56:46.885Z,31.50
2023-05-05T21:59:16.517Z,31.50
2023-05-05T22:01:44.800Z,31.50
2023-05-05T22:04:12.387Z,31.40
2023-05-05T22:06:39.958Z,31.40
2023-05-05T22:09:07.845Z,31.50
2023-05-05T22:11:36.364Z,31.40
2023-05-05T22:14:03.948Z,31.40
2023-05-05T22:16:31.493Z,31.40
2023-05-05T22:18:59.110Z,31.40
2023-05-05T22:21:27.780Z,31.30
2023-05-05T22:23:58.117Z,31.30
2023-05-05T22:26:25.700Z,31.30
2023-05-05T22:28:53.246Z,31.30
2023-05-05T22:31:20.793Z,31.30
2023-05-05T22:33:48.409Z,31.30
2023-05-05T22:36:16.964Z,31.30
2023-05-05T22:38:44.566Z,31.30
2023-05-05T22:41:13.563Z,31.20
2023-05-05T22:43:41.144Z,31.30
2023-05-05T22:46:08.785Z,31.30
2023-05-05T22:48:36.766Z,31.30
2023-05-05T22:51:04.408Z,31.20
2023-05-05T22:53:31.984Z,31.20
2023-05-05T22:55:59.647Z,31.20
2023-05-05T22:58:28.101Z,31.20
2023-05-05T23:00:55.743Z,31.20
2023-05-05T23:03:23.367Z,31.20
2023-05-05T23:05:51.038Z,31.20
2023-05-05T23:08:18.746Z,31.20
2023-05-05T23:10:46.567Z,31.20
2023-05-05T23:13:14.804Z,31.20
2023-05-05T23:15:42.397Z,31.20
2023-05-05T23:18:10.222Z,31.20
2023-05-05T23:20:38.062Z,31.20
2023-05-05T23:23:06.157Z,31.20
2023-05-05T23:25:33.671Z,31.20
2023-05-05T23:28:01.343Z,31.20
2023-05-05T23:30:29.436Z,31.20
2023-05-05T23:32:58.150Z,31.20
2023-05-05T23:35:26.796Z,31.20
2023-05-05T23:37:54.373Z,31.20
2023-05-05T23:40:25.717Z,31.20
2023-05-05T23:42:53.241Z,31.20
2023-05-05T23:45:20.843Z,31.20
2023-05-05T23:47:49.258Z,31.30
2023-05-05T23:50:16.832Z,31.20
2023-05-05T23:52:45.310Z,31.20
2023-05-05T23:55:12.922Z,31.20
2023-05-05T23:57:40.556Z,31.20
